Paradise Valley, Arizona
Current Conditions -  °F | °C
As of 6:53 PM on Wednesday 22 Oct 2014 (Local Time) from KSDL Reporting Station
Clear Clear  
Wind Chill: 82°   Ceiling: Unl
Heat Index: 82°   Visibility: 10mi
Dew Point: 48°   Wind: 0mph
Humidity: 30%   Direction: NA
Pressure: 29.95"   Gusts: NA
Location:  33.53°N, 111.94°W
Report Text: KSDL 230153Z 00000KT 10SM CLR 28/09 A2995 RMK AO2 SLP121 T02780089
Loading
Personal Weather Stations






























Interactive Weather Map
Tropical Storm Tracking
New forecast layout! Learn more

10-Day Weather Forecast

Advertisements
Track Severe Weather on mobile